sensor_id;sensor_type;location;lat;lon;timestamp;temperature;humidity
29211;DHT22;16250;49.932;10.980;2022-12-18T00:03:35;-10.80;99.90
29211;DHT22;16250;49.932;10.980;2022-12-18T00:06:01;-10.70;99.90
29211;DHT22;16250;49.932;10.980;2022-12-18T00:08:27;-10.80;99.90
29211;DHT22;16250;49.932;10.980;2022-12-18T00:10:53;-10.70;99.90
29211;DHT22;16250;49.932;10.980;2022-12-18T00:13:18;-10.80;99.90
29211;DHT22;16250;49.932;10.980;2022-12-18T00:15:44;-10.80;99.90
29211;DHT22;16250;49.932;10.980;2022-12-18T00:18:09;-10.90;99.90
29211;DHT22;16250;49.932;10.980;2022-12-18T00:20:39;-10.90;99.90
29211;DHT22;16250;49.932;10.980;2022-12-18T00:23:06;-11.00;99.90
29211;DHT22;16250;49.932;10.980;2022-12-18T00:25:35;-11.10;99.90
29211;DHT22;16250;49.932;10.980;2022-12-18T00:28:03;-11.10;99.90
29211;DHT22;16250;49.932;10.980;2022-12-18T00:30:29;-11.00;99.90
29211;DHT22;16250;49.932;10.980;2022-12-18T00:32:54;-11.00;99.90
29211;DHT22;16250;49.932;10.980;2022-12-18T00:35:20;-10.90;99.90
29211;DHT22;16250;49.932;10.980;2022-12-18T00:37:46;-10.80;99.90
29211;DHT22;16250;49.932;10.980;2022-12-18T00:40:12;-10.90;99.90
29211;DHT22;16250;49.932;10.980;2022-12-18T00:42:37;-10.90;99.90
29211;DHT22;16250;49.932;10.980;2022-12-18T00:45:27;-11.20;99.90
29211;DHT22;16250;49.932;10.980;2022-12-18T00:47:53;-11.70;99.90
29211;DHT22;16250;49.932;10.980;2022-12-18T00:50:19;-11.60;99.90
29211;DHT22;16250;49.932;10.980;2022-12-18T00:52:45;-11.50;99.90
29211;DHT22;16250;49.932;10.980;2022-12-18T00:55:11;-11.30;99.90
29211;DHT22;16250;49.932;10.980;2022-12-18T00:57:37;-11.40;99.90
29211;DHT22;16250;49.932;10.980;2022-12-18T01:00:04;-11.30;99.90
29211;DHT22;16250;49.932;10.980;2022-12-18T01:02:30;-11.40;99.90
29211;DHT22;16250;49.932;10.980;2022-12-18T01:04:56;-11.40;99.90
29211;DHT22;16250;49.932;10.980;2022-12-18T01:07:21;-11.30;99.90
29211;DHT22;16250;49.932;10.980;2022-12-18T01:09:47;-11.10;99.90
29211;DHT22;16250;49.932;10.980;2022-12-18T01:12:12;-11.20;99.90
29211;DHT22;16250;49.932;10.980;2022-12-18T01:14:38;-11.20;99.90
29211;DHT22;16250;49.932;10.980;2022-12-18T01:17:06;-11.30;99.90
29211;DHT22;16250;49.932;10.980;2022-12-18T01:19:33;-11.30;99.90
29211;DHT22;16250;49.932;10.980;2022-12-18T01:21:59;-11.30;99.90
29211;DHT22;16250;49.932;10.980;2022-12-18T01:24:25;-11.40;99.90
29211;DHT22;16250;49.932;10.980;2022-12-18T01:26:50;-11.40;99.90
29211;DHT22;16250;49.932;10.980;2022-12-18T01:29:16;-11.30;99.90
29211;DHT22;16250;49.932;10.980;2022-12-18T01:31:41;-11.10;99.90
29211;DHT22;16250;49.932;10.980;2022-12-18T01:34:07;-11.00;99.90
29211;DHT22;16250;49.932;10.980;2022-12-18T01:36:37;-11.00;99.90
29211;DHT22;16250;49.932;10.980;2022-12-18T01:39:07;-10.90;99.90
29211;DHT22;16250;49.932;10.980;2022-12-18T01:41:34;-10.90;99.90
29211;DHT22;16250;49.932;10.980;2022-12-18T01:47:52;-10.90;99.90
29211;DHT22;16250;49.932;10.980;2022-12-18T01:50:25;-10.90;99.90
29211;DHT22;16250;49.932;10.980;2022-12-18T01:53:01;-11.00;99.90
29211;DHT22;16250;49.932;10.980;2022-12-18T01:55:35;-10.90;99.90
29211;DHT22;16250;49.932;10.980;2022-12-18T01:58:02;-10.80;99.90
29211;DHT22;16250;49.932;10.980;2022-12-18T02:00:28;-11.00;99.90
29211;DHT22;16250;49.932;10.980;2022-12-18T02:02:54;-11.00;99.90
29211;DHT22;16250;49.932;10.980;2022-12-18T02:10:48;-11.20;99.90
29211;DHT22;16250;49.932;10.980;2022-12-18T02:13:29;-11.30;99.90
29211;DHT22;16250;49.932;10.980;2022-12-18T02:18:55;-11.30;99.90
29211;DHT22;16250;49.932;10.980;2022-12-18T02:26:58;-11.40;99.90
29211;DHT22;16250;49.932;10.980;2022-12-18T02:29:51;-11.50;99.90
29211;DHT22;16250;49.932;10.980;2022-12-18T02:32:31;-11.50;99.90
29211;DHT22;16250;49.932;10.980;2022-12-18T02:34:58;-11.40;99.90
29211;DHT22;16250;49.932;10.980;2022-12-18T02:37:26;-11.30;99.90
29211;DHT22;16250;49.932;10.980;2022-12-18T02:39:54;-11.40;99.90
29211;DHT22;16250;49.932;10.980;2022-12-18T02:42:23;-11.40;99.90
29211;DHT22;16250;49.932;10.980;2022-12-18T02:44:51;-11.30;99.90
29211;DHT22;16250;49.932;10.980;2022-12-18T02:47:18;-11.30;99.90
29211;DHT22;16250;49.932;10.980;2022-12-18T02:49:55;-11.30;99.90
29211;DHT22;16250;49.932;10.980;2022-12-18T03:06:47;-11.50;99.90
29211;DHT22;16250;49.932;10.980;2022-12-18T03:09:24;-11.60;99.90
29211;DHT22;16250;49.932;10.980;2022-12-18T03:11:56;-12.20;99.90
29211;DHT22;16250;49.932;10.980;2022-12-18T03:14:42;-12.50;99.90
29211;DHT22;16250;49.932;10.980;2022-12-18T03:17:14;-12.40;99.90
29211;DHT22;16250;49.932;10.980;2022-12-18T03:19:43;-12.20;99.90
29211;DHT22;16250;49.932;10.980;2022-12-18T03:22:09;-12.20;99.90
29211;DHT22;16250;49.932;10.980;2022-12-18T03:24:36;-12.20;99.90
29211;DHT22;16250;49.932;10.980;2022-12-18T03:27:10;-12.20;99.90
29211;DHT22;16250;49.932;10.980;2022-12-18T03:29:47;-12.10;99.90
29211;DHT22;16250;49.932;10.980;2022-12-18T03:32:30;-11.90;99.90
29211;DHT22;16250;49.932;10.980;2022-12-18T03:35:01;-11.90;99.90
29211;DHT22;16250;49.932;10.980;2022-12-18T03:37:28;-11.80;99.90
29211;DHT22;16250;49.932;10.980;2022-12-18T03:39:53;-11.90;99.90
29211;DHT22;16250;49.932;10.980;2022-12-18T03:42:46;-12.20;99.90
29211;DHT22;16250;49.932;10.980;2022-12-18T03:45:23;-12.50;99.90
29211;DHT22;16250;49.932;10.980;2022-12-18T03:48:01;-12.40;99.90
29211;DHT22;16250;49.932;10.980;2022-12-18T03:50:53;-12.40;99.90
29211;DHT22;16250;49.932;10.980;2022-12-18T03:53:32;-12.60;99.90
29211;DHT22;16250;49.932;10.980;2022-12-18T03:56:01;-12.70;99.90
29211;DHT22;16250;49.932;10.980;2022-12-18T03:58:28;-12.70;99.90
29211;DHT22;16250;49.932;10.980;2022-12-18T04:00:56;-12.80;99.90
29211;DHT22;16250;49.932;10.980;2022-12-18T04:03:25;-13.10;99.90
29211;DHT22;16250;49.932;10.980;2022-12-18T04:05:52;-12.90;99.90
29211;DHT22;16250;49.932;10.980;2022-12-18T04:08:20;-12.70;99.90
29211;DHT22;16250;49.932;10.980;2022-12-18T04:10:46;-12.40;99.90
29211;DHT22;16250;49.932;10.980;2022-12-18T04:13:11;-12.20;99.90
29211;DHT22;16250;49.932;10.980;2022-12-18T04:15:37;-12.10;99.90
29211;DHT22;16250;49.932;10.980;2022-12-18T04:18:03;-12.10;99.90
29211;DHT22;16250;49.932;10.980;2022-12-18T04:20:29;-12.00;99.90
29211;DHT22;16250;49.932;10.980;2022-12-18T04:22:55;-12.00;99.90
29211;DHT22;16250;49.932;10.980;2022-12-18T04:25:20;-12.00;99.90
29211;DHT22;16250;49.932;10.980;2022-12-18T04:27:46;-12.00;99.90
29211;DHT22;16250;49.932;10.980;2022-12-18T04:30:11;-12.00;99.90
29211;DHT22;16250;49.932;10.980;2022-12-18T04:32:37;-12.00;99.90
29211;DHT22;16250;49.932;10.980;2022-12-18T04:35:03;-11.90;99.90
29211;DHT22;16250;49.932;10.980;2022-12-18T04:37:31;-11.80;99.90
29211;DHT22;16250;49.932;10.980;2022-12-18T04:39:57;-11.90;99.90
29211;DHT22;16250;49.932;10.980;2022-12-18T04:42:22;-11.80;99.90
29211;DHT22;16250;49.932;10.980;2022-12-18T04:44:48;-11.80;99.90
29211;DHT22;16250;49.932;10.980;2022-12-18T04:47:14;-11.90;99.90
29211;DHT22;16250;49.932;10.980;2022-12-18T04:49:39;-12.00;99.90
29211;DHT22;16250;49.932;10.980;2022-12-18T04:52:06;-11.90;99.90
29211;DHT22;16250;49.932;10.980;2022-12-18T04:54:31;-12.00;99.90
29211;DHT22;16250;49.932;10.980;2022-12-18T04:56:57;-12.00;99.90
29211;DHT22;16250;49.932;10.980;2022-12-18T04:59:22;-12.10;99.90
29211;DHT22;16250;49.932;10.980;2022-12-18T05:01:48;-12.10;99.90
29211;DHT22;16250;49.932;10.980;2022-12-18T05:04:13;-12.10;99.90
29211;DHT22;16250;49.932;10.980;2022-12-18T05:06:39;-12.10;99.90
29211;DHT22;16250;49.932;10.980;2022-12-18T05:09:04;-12.10;99.90
29211;DHT22;16250;49.932;10.980;2022-12-18T05:11:30;-12.10;99.90
29211;DHT22;16250;49.932;10.980;2022-12-18T05:13:55;-12.10;99.90
29211;DHT22;16250;49.932;10.980;2022-12-18T05:16:21;-12.20;99.90
29211;DHT22;16250;49.932;10.980;2022-12-18T05:18:46;-12.20;99.90
29211;DHT22;16250;49.932;10.980;2022-12-18T05:21:12;-12.20;99.90
29211;DHT22;16250;49.932;10.980;2022-12-18T05:23:38;-12.20;99.90
29211;DHT22;16250;49.932;10.980;2022-12-18T05:26:05;-12.30;99.90
29211;DHT22;16250;49.932;10.980;2022-12-18T05:28:32;-12.40;99.90
29211;DHT22;16250;49.932;10.980;2022-12-18T05:31:00;-12.30;99.90
29211;DHT22;16250;49.932;10.980;2022-12-18T05:33:30;-12.20;99.90
29211;DHT22;16250;49.932;10.980;2022-12-18T05:35:57;-12.20;99.90
29211;DHT22;16250;49.932;10.980;2022-12-18T05:38:25;-12.20;99.90
29211;DHT22;16250;49.932;10.980;2022-12-18T05:40:52;-12.30;99.90
29211;DHT22;16250;49.932;10.980;2022-12-18T05:43:18;-12.20;99.90
29211;DHT22;16250;49.932;10.980;2022-12-18T05:45:44;-12.30;99.90
29211;DHT22;16250;49.932;10.980;2022-12-18T05:48:10;-12.20;99.90
29211;DHT22;16250;49.932;10.980;2022-12-18T05:50:37;-12.20;99.90
29211;DHT22;16250;49.932;10.980;2022-12-18T05:53:04;-12.20;99.90
29211;DHT22;16250;49.932;10.980;2022-12-18T05:55:33;-12.10;99.90
29211;DHT22;16250;49.932;10.980;2022-12-18T05:57:59;-12.20;99.90
29211;DHT22;16250;49.932;10.980;2022-12-18T06:00:25;-12.20;99.90
29211;DHT22;16250;49.932;10.980;2022-12-18T06:02:51;-12.30;99.90
29211;DHT22;16250;49.932;10.980;2022-12-18T06:05:16;-12.50;99.90
29211;DHT22;16250;49.932;10.980;2022-12-18T06:07:42;-12.40;99.90
29211;DHT22;16250;49.932;10.980;2022-12-18T06:10:07;-12.40;99.90
29211;DHT22;16250;49.932;10.980;2022-12-18T06:12:33;-12.30;99.90
29211;DHT22;16250;49.932;10.980;2022-12-18T06:14:59;-12.30;99.90
29211;DHT22;16250;49.932;10.980;2022-12-18T06:17:32;-12.20;99.90
29211;DHT22;16250;49.932;10.980;2022-12-18T06:19:58;-12.20;99.90
29211;DHT22;16250;49.932;10.980;2022-12-18T06:22:24;-12.20;99.90
29211;DHT22;16250;49.932;10.980;2022-12-18T06:24:49;-12.20;99.90
29211;DHT22;16250;49.932;10.980;2022-12-18T06:27:15;-12.30;99.90
29211;DHT22;16250;49.932;10.980;2022-12-18T06:29:41;-12.30;99.90
29211;DHT22;16250;49.932;10.980;2022-12-18T06:32:07;-12.40;99.90
29211;DHT22;16250;49.932;10.980;2022-12-18T06:34:33;-12.30;99.90
29211;DHT22;16250;49.932;10.980;2022-12-18T06:36:59;-12.30;99.90
29211;DHT22;16250;49.932;10.980;2022-12-18T06:39:26;-12.40;99.90
29211;DHT22;16250;49.932;10.980;2022-12-18T06:41:52;-12.50;99.90
29211;DHT22;16250;49.932;10.980;2022-12-18T06:44:18;-12.30;99.90
29211;DHT22;16250;49.932;10.980;2022-12-18T06:46:43;-12.20;99.90
29211;DHT22;16250;49.932;10.980;2022-12-18T06:49:09;-12.20;99.90
29211;DHT22;16250;49.932;10.980;2022-12-18T06:51:35;-12.10;99.90
29211;DHT22;16250;49.932;10.980;2022-12-18T06:54:01;-12.20;99.90
29211;DHT22;16250;49.932;10.980;2022-12-18T06:56:26;-12.30;99.90
29211;DHT22;16250;49.932;10.980;2022-12-18T06:58:53;-12.50;99.90
29211;DHT22;16250;49.932;10.980;2022-12-18T07:01:18;-12.40;99.90
29211;DHT22;16250;49.932;10.980;2022-12-18T07:03:44;-12.70;99.90
29211;DHT22;16250;49.932;10.980;2022-12-18T07:06:15;-12.90;99.90
29211;DHT22;16250;49.932;10.980;2022-12-18T07:08:41;-13.00;99.90
29211;DHT22;16250;49.932;10.980;2022-12-18T07:11:07;-12.90;99.90
29211;DHT22;16250;49.932;10.980;2022-12-18T07:13:32;-12.90;99.90
29211;DHT22;16250;49.932;10.980;2022-12-18T07:16:14;-12.90;99.90
29211;DHT22;16250;49.932;10.980;2022-12-18T07:18:40;-12.80;99.90
29211;DHT22;16250;49.932;10.980;2022-12-18T07:21:08;-12.70;99.90
29211;DHT22;16250;49.932;10.980;2022-12-18T07:23:35;-12.70;99.90
29211;DHT22;16250;49.932;10.980;2022-12-18T07:26:12;-12.70;99.90
29211;DHT22;16250;49.932;10.980;2022-12-18T07:28:39;-12.60;99.90
29211;DHT22;16250;49.932;10.980;2022-12-18T07:31:06;-12.50;99.90
29211;DHT22;16250;49.932;10.980;2022-12-18T07:33:33;-12.40;99.90
29211;DHT22;16250;49.932;10.980;2022-12-18T07:36:02;-12.50;99.90
29211;DHT22;16250;49.932;10.980;2022-12-18T07:38:29;-12.50;99.90
29211;DHT22;16250;49.932;10.980;2022-12-18T07:40:59;-12.50;99.90
29211;DHT22;16250;49.932;10.980;2022-12-18T07:43:25;-12.40;99.90
29211;DHT22;16250;49.932;10.980;2022-12-18T07:45:50;-12.30;99.90
29211;DHT22;16250;49.932;10.980;2022-12-18T07:48:16;-12.10;99.90
29211;DHT22;16250;49.932;10.980;2022-12-18T07:50:41;-12.20;99.90
29211;DHT22;16250;49.932;10.980;2022-12-18T07:53:07;-12.00;99.90
29211;DHT22;16250;49.932;10.980;2022-12-18T07:55:32;-11.90;99.90
29211;DHT22;16250;49.932;10.980;2022-12-18T07:58:01;-11.80;99.90
29211;DHT22;16250;49.932;10.980;2022-12-18T08:00:27;-11.80;99.90
29211;DHT22;16250;49.932;10.980;2022-12-18T08:02:53;-11.90;99.90
29211;DHT22;16250;49.932;10.980;2022-12-18T08:05:18;-11.80;99.90
29211;DHT22;16250;49.932;10.980;2022-12-18T08:07:44;-11.70;99.90
29211;DHT22;16250;49.932;10.980;2022-12-18T08:10:09;-11.80;99.90
29211;DHT22;16250;49.932;10.980;2022-12-18T08:12:35;-11.70;99.90
29211;DHT22;16250;49.932;10.980;2022-12-18T08:15:00;-11.70;99.90
29211;DHT22;16250;49.932;10.980;2022-12-18T08:17:26;-11.50;99.90
29211;DHT22;16250;49.932;10.980;2022-12-18T08:19:51;-11.40;99.90
29211;DHT22;16250;49.932;10.980;2022-12-18T08:22:17;-11.30;99.90
29211;DHT22;16250;49.932;10.980;2022-12-18T08:24:43;-11.20;99.90
29211;DHT22;16250;49.932;10.980;2022-12-18T08:27:08;-11.20;99.90
29211;DHT22;16250;49.932;10.980;2022-12-18T08:29:34;-11.20;99.90
29211;DHT22;16250;49.932;10.980;2022-12-18T08:31:59;-11.10;99.90
29211;DHT22;16250;49.932;10.980;2022-12-18T08:34:25;-11.20;99.90
29211;DHT22;16250;49.932;10.980;2022-12-18T08:36:50;-11.20;99.90
29211;DHT22;16250;49.932;10.980;2022-12-18T08:39:16;-11.10;99.90
29211;DHT22;16250;49.932;10.980;2022-12-18T08:41:41;-10.90;99.90
29211;DHT22;16250;49.932;10.980;2022-12-18T08:44:07;-10.80;99.90
29211;DHT22;16250;49.932;10.980;2022-12-18T08:46:51;-10.80;99.90
29211;DHT22;16250;49.932;10.980;2022-12-18T08:49:18;-10.70;99.90
29211;DHT22;16250;49.932;10.980;2022-12-18T08:51:43;-10.70;99.90
29211;DHT22;16250;49.932;10.980;2022-12-18T08:54:11;-10.60;99.90
29211;DHT22;16250;49.932;10.980;2022-12-18T08:56:38;-10.40;99.90
29211;DHT22;16250;49.932;10.980;2022-12-18T08:59:04;-10.30;99.90
29211;DHT22;16250;49.932;10.980;2022-12-18T09:01:30;-10.20;99.90
29211;DHT22;16250;49.932;10.980;2022-12-18T09:03:55;-10.20;99.90
29211;DHT22;16250;49.932;10.980;2022-12-18T09:06:22;-10.10;99.90
29211;DHT22;16250;49.932;10.980;2022-12-18T09:08:48;-10.20;99.90
29211;DHT22;16250;49.932;10.980;2022-12-18T09:11:19;-10.10;99.90
29211;DHT22;16250;49.932;10.980;2022-12-18T09:13:45;-10.10;99.90
29211;DHT22;16250;49.932;10.980;2022-12-18T09:16:11;-10.10;99.90
29211;DHT22;16250;49.932;10.980;2022-12-18T09:18:37;-10.00;99.90
29211;DHT22;16250;49.932;10.980;2022-12-18T09:21:14;-10.00;99.90
29211;DHT22;16250;49.932;10.980;2022-12-18T09:23:40;-9.90;99.90
29211;DHT22;16250;49.932;10.980;2022-12-18T09:26:05;-9.80;99.90
29211;DHT22;16250;49.932;10.980;2022-12-18T09:28:31;-9.80;99.90
29211;DHT22;16250;49.932;10.980;2022-12-18T09:30:57;-9.70;99.90
29211;DHT22;16250;49.932;10.980;2022-12-18T09:33:22;-9.60;99.90
29211;DHT22;16250;49.932;10.980;2022-12-18T09:35:48;-9.50;99.90
29211;DHT22;16250;49.932;10.980;2022-12-18T09:38:18;-9.40;99.90
29211;DHT22;16250;49.932;10.980;2022-12-18T09:40:48;-9.40;99.90
29211;DHT22;16250;49.932;10.980;2022-12-18T09:46:02;-9.20;99.90
29211;DHT22;16250;49.932;10.980;2022-12-18T09:48:32;-9.10;99.90
29211;DHT22;16250;49.932;10.980;2022-12-18T09:51:09;-9.00;99.90
29211;DHT22;16250;49.932;10.980;2022-12-18T09:53:38;-8.90;99.90
29211;DHT22;16250;49.932;10.980;2022-12-18T09:56:05;-8.70;99.90
29211;DHT22;16250;49.932;10.980;2022-12-18T09:58:39;-8.70;99.90
29211;DHT22;16250;49.932;10.980;2022-12-18T10:01:20;-8.70;99.90
29211;DHT22;16250;49.932;10.980;2022-12-18T10:03:47;-8.70;99.90
29211;DHT22;16250;49.932;10.980;2022-12-18T10:14:48;-8.40;99.90
29211;DHT22;16250;49.932;10.980;2022-12-18T10:20:02;-8.20;99.90
29211;DHT22;16250;49.932;10.980;2022-12-18T10:25:26;-8.10;99.90
29211;DHT22;16250;49.932;10.980;2022-12-18T10:27:58;-7.90;99.90
29211;DHT22;16250;49.932;10.980;2022-12-18T10:30:25;-7.80;99.90
29211;DHT22;16250;49.932;10.980;2022-12-18T10:32:52;-7.80;99.90
29211;DHT22;16250;49.932;10.980;2022-12-18T10:35:24;-7.70;99.90
29211;DHT22;16250;49.932;10.980;2022-12-18T10:38:26;-7.70;99.90
29211;DHT22;16250;49.932;10.980;2022-12-18T10:43:30;-7.40;99.90
29211;DHT22;16250;49.932;10.980;2022-12-18T10:54:01;-7.30;99.90
29211;DHT22;16250;49.932;10.980;2022-12-18T10:56:29;-7.20;99.90
29211;DHT22;16250;49.932;10.980;2022-12-18T10:58:58;-7.10;99.90
29211;DHT22;16250;49.932;10.980;2022-12-18T11:01:24;-7.00;99.90
29211;DHT22;16250;49.932;10.980;2022-12-18T11:06:17;-6.80;99.90
29211;DHT22;16250;49.932;10.980;2022-12-18T11:09:01;-6.60;99.90
29211;DHT22;16250;49.932;10.980;2022-12-18T11:11:28;-6.70;99.90
29211;DHT22;16250;49.932;10.980;2022-12-18T11:14:06;-6.60;99.90
29211;DHT22;16250;49.932;10.980;2022-12-18T11:16:49;-6.60;99.90
29211;DHT22;16250;49.932;10.980;2022-12-18T11:19:41;-6.50;99.90
29211;DHT22;16250;49.932;10.980;2022-12-18T11:22:21;-6.50;99.90
29211;DHT22;16250;49.932;10.980;2022-12-18T11:25:06;-6.40;99.90
29211;DHT22;16250;49.932;10.980;2022-12-18T11:30:39;-6.20;99.90
29211;DHT22;16250;49.932;10.980;2022-12-18T11:33:15;-6.30;99.90
29211;DHT22;16250;49.932;10.980;2022-12-18T11:38:29;-6.20;99.90
29211;DHT22;16250;49.932;10.980;2022-12-18T11:41:06;-6.20;99.90
29211;DHT22;16250;49.932;10.980;2022-12-18T11:43:42;-6.00;99.90
29211;DHT22;16250;49.932;10.980;2022-12-18T11:46:14;-5.90;99.90
29211;DHT22;16250;49.932;10.980;2022-12-18T11:51:15;-5.70;99.90
29211;DHT22;16250;49.932;10.980;2022-12-18T11:53:42;-5.70;99.90
29211;DHT22;16250;49.932;10.980;2022-12-18T11:56:31;-5.60;99.90
29211;DHT22;16250;49.932;10.980;2022-12-18T11:59:20;-5.50;99.90
29211;DHT22;16250;49.932;10.980;2022-12-18T12:01:55;-5.40;99.90
29211;DHT22;16250;49.932;10.980;2022-12-18T12:04:57;-5.40;99.90
29211;DHT22;16250;49.932;10.980;2022-12-18T12:08:02;-5.30;99.90
29211;DHT22;16250;49.932;10.980;2022-12-18T12:10:40;-5.10;99.90
29211;DHT22;16250;49.932;10.980;2022-12-18T12:13:30;-5.10;99.90
29211;DHT22;16250;49.932;10.980;2022-12-18T12:16:56;-5.00;99.90
29211;DHT22;16250;49.932;10.980;2022-12-18T12:27:32;-4.70;99.90
29211;DHT22;16250;49.932;10.980;2022-12-18T12:30:05;-4.50;99.90
29211;DHT22;16250;49.932;10.980;2022-12-18T12:33:15;-4.40;99.90
29211;DHT22;16250;49.932;10.980;2022-12-18T12:38:44;-4.40;99.90
29211;DHT22;16250;49.932;10.980;2022-12-18T12:41:14;-4.30;99.90
29211;DHT22;16250;49.932;10.980;2022-12-18T12:44:04;-4.40;99.90
29211;DHT22;16250;49.932;10.980;2022-12-18T12:46:35;-4.50;99.90
29211;DHT22;16250;49.932;10.980;2022-12-18T12:49:03;-4.50;99.90
29211;DHT22;16250;49.932;10.980;2022-12-18T12:51:35;-4.50;99.90
29211;DHT22;16250;49.932;10.980;2022-12-18T12:54:05;-4.40;99.90
29211;DHT22;16250;49.932;10.980;2022-12-18T12:56:53;-4.30;99.90
29211;DHT22;16250;49.932;10.980;2022-12-18T13:01:58;-4.30;99.90
29211;DHT22;16250;49.932;10.980;2022-12-18T13:04:34;-4.10;99.90
29211;DHT22;16250;49.932;10.980;2022-12-18T13:10:22;-4.00;99.90
29211;DHT22;16250;49.932;10.980;2022-12-18T13:12:55;-4.00;99.90
29211;DHT22;16250;49.932;10.980;2022-12-18T13:18:18;-4.10;99.90
29211;DHT22;16250;49.932;10.980;2022-12-18T13:21:20;-4.10;99.90
29211;DHT22;16250;49.932;10.980;2022-12-18T13:23:37;-4.10;99.90
29211;DHT22;16250;49.932;10.980;2022-12-18T13:31:14;-3.90;99.90
29211;DHT22;16250;49.932;10.980;2022-12-18T13:33:44;-3.90;99.90
29211;DHT22;16250;49.932;10.980;2022-12-18T13:36:26;-4.00;99.90
29211;DHT22;16250;49.932;10.980;2022-12-18T13:41:45;-4.30;99.90
29211;DHT22;16250;49.932;10.980;2022-12-18T13:44:22;-4.50;99.90
29211;DHT22;16250;49.932;10.980;2022-12-18T13:46:51;-4.50;99.90
29211;DHT22;16250;49.932;10.980;2022-12-18T13:52:02;-4.30;99.90
29211;DHT22;16250;49.932;10.980;2022-12-18T13:54:40;-4.30;99.90
29211;DHT22;16250;49.932;10.980;2022-12-18T13:59:51;-4.20;99.90
29211;DHT22;16250;49.932;10.980;2022-12-18T14:02:21;-4.30;99.90
29211;DHT22;16250;49.932;10.980;2022-12-18T14:04:49;-4.40;99.90
29211;DHT22;16250;49.932;10.980;2022-12-18T14:07:18;-4.40;99.90
29211;DHT22;16250;49.932;10.980;2022-12-18T14:09:47;-4.40;99.90
29211;DHT22;16250;49.932;10.980;2022-12-18T14:12:25;-4.40;99.90
29211;DHT22;16250;49.932;10.980;2022-12-18T14:18:02;-4.40;99.90
29211;DHT22;16250;49.932;10.980;2022-12-18T14:20:31;-4.40;99.90
29211;DHT22;16250;49.932;10.980;2022-12-18T14:22:58;-4.40;99.90
29211;DHT22;16250;49.932;10.980;2022-12-18T14:25:27;-4.40;99.90
29211;DHT22;16250;49.932;10.980;2022-12-18T14:28:04;-4.50;99.90
29211;DHT22;16250;49.932;10.980;2022-12-18T14:30:37;-4.50;99.90
29211;DHT22;16250;49.932;10.980;2022-12-18T14:33:24;-4.60;99.90
29211;DHT22;16250;49.932;10.980;2022-12-18T14:36:01;-4.60;99.90
29211;DHT22;16250;49.932;10.980;2022-12-18T14:38:37;-4.60;99.90
29211;DHT22;16250;49.932;10.980;2022-12-18T14:41:05;-4.60;99.90
29211;DHT22;16250;49.932;10.980;2022-12-18T14:43:33;-4.60;99.90
29211;DHT22;16250;49.932;10.980;2022-12-18T14:46:00;-4.70;99.90
29211;DHT22;16250;49.932;10.980;2022-12-18T14:48:38;-4.70;99.90
29211;DHT22;16250;49.932;10.980;2022-12-18T14:51:20;-4.70;99.90
29211;DHT22;16250;49.932;10.980;2022-12-18T14:54:04;-4.70;99.90
29211;DHT22;16250;49.932;10.980;2022-12-18T14:56:42;-4.80;99.90
29211;DHT22;16250;49.932;10.980;2022-12-18T14:59:16;-4.80;99.90
29211;DHT22;16250;49.932;10.980;2022-12-18T15:04:38;-4.90;99.90
29211;DHT22;16250;49.932;10.980;2022-12-18T15:07:13;-4.90;99.90
29211;DHT22;16250;49.932;10.980;2022-12-18T15:09:41;-5.00;99.90
29211;DHT22;16250;49.932;10.980;2022-12-18T15:14:53;-5.10;99.90
29211;DHT22;16250;49.932;10.980;2022-12-18T15:17:23;-5.10;99.90
29211;DHT22;16250;49.932;10.980;2022-12-18T15:19:52;-5.10;99.90
29211;DHT22;16250;49.932;10.980;2022-12-18T15:22:27;-5.10;99.90
29211;DHT22;16250;49.932;10.980;2022-12-18T15:24:55;-5.10;99.90
29211;DHT22;16250;49.932;10.980;2022-12-18T15:27:35;-5.10;99.90
29211;DHT22;16250;49.932;10.980;2022-12-18T15:32:36;-5.10;99.90
29211;DHT22;16250;49.932;10.980;2022-12-18T15:37:43;-5.20;99.90
29211;DHT22;16250;49.932;10.980;2022-12-18T15:40:23;-5.20;99.90
29211;DHT22;16250;49.932;10.980;2022-12-18T15:42:51;-5.20;99.90
29211;DHT22;16250;49.932;10.980;2022-12-18T15:45:36;-5.20;99.90
29211;DHT22;16250;49.932;10.980;2022-12-18T15:48:09;-5.20;99.90
29211;DHT22;16250;49.932;10.980;2022-12-18T15:50:37;-5.30;99.90
29211;DHT22;16250;49.932;10.980;2022-12-18T15:53:03;-5.20;99.90
29211;DHT22;16250;49.932;10.980;2022-12-18T15:55:28;-5.20;99.90
29211;DHT22;16250;49.932;10.980;2022-12-18T15:58:29;-5.30;99.90
29211;DHT22;16250;49.932;10.980;2022-12-18T16:00:56;-5.30;99.90
29211;DHT22;16250;49.932;10.980;2022-12-18T16:03:23;-5.30;99.90
29211;DHT22;16250;49.932;10.980;2022-12-18T16:05:49;-5.30;99.90
29211;DHT22;16250;49.932;10.980;2022-12-18T16:08:14;-5.40;99.90
29211;DHT22;16250;49.932;10.980;2022-12-18T16:10:40;-5.30;99.90
29211;DHT22;16250;49.932;10.980;2022-12-18T16:13:10;-5.30;99.90
29211;DHT22;16250;49.932;10.980;2022-12-18T16:15:36;-5.20;99.90
29211;DHT22;16250;49.932;10.980;2022-12-18T16:18:01;-5.30;99.90
29211;DHT22;16250;49.932;10.980;2022-12-18T16:20:27;-5.30;99.90
29211;DHT22;16250;49.932;10.980;2022-12-18T16:22:52;-5.30;99.90
29211;DHT22;16250;49.932;10.980;2022-12-18T16:25:28;-5.20;99.90
29211;DHT22;16250;49.932;10.980;2022-12-18T16:27:54;-5.10;99.90
29211;DHT22;16250;49.932;10.980;2022-12-18T16:30:26;-5.10;99.90
29211;DHT22;16250;49.932;10.980;2022-12-18T16:32:53;-5.10;99.90
29211;DHT22;16250;49.932;10.980;2022-12-18T16:35:19;-5.10;99.90
29211;DHT22;16250;49.932;10.980;2022-12-18T16:37:44;-5.10;99.90
29211;DHT22;16250;49.932;10.980;2022-12-18T16:40:13;-5.20;99.90
29211;DHT22;16250;49.932;10.980;2022-12-18T16:42:40;-5.20;99.90
29211;DHT22;16250;49.932;10.980;2022-12-18T16:45:08;-5.10;99.90
29211;DHT22;16250;49.932;10.980;2022-12-18T16:47:34;-5.10;99.90
29211;DHT22;16250;49.932;10.980;2022-12-18T16:50:00;-5.10;99.90
29211;DHT22;16250;49.932;10.980;2022-12-18T16:52:26;-5.10;99.90
29211;DHT22;16250;49.932;10.980;2022-12-18T16:54:52;-5.10;99.90
29211;DHT22;16250;49.932;10.980;2022-12-18T16:57:19;-5.00;99.90
29211;DHT22;16250;49.932;10.980;2022-12-18T16:59:45;-5.00;99.90
29211;DHT22;16250;49.932;10.980;2022-12-18T17:02:21;-5.00;99.90
29211;DHT22;16250;49.932;10.980;2022-12-18T17:04:47;-4.80;99.90
29211;DHT22;16250;49.932;10.980;2022-12-18T17:07:14;-4.80;99.90
29211;DHT22;16250;49.932;10.980;2022-12-18T17:09:40;-4.80;99.90
29211;DHT22;16250;49.932;10.980;2022-12-18T17:12:06;-4.90;99.90
29211;DHT22;16250;49.932;10.980;2022-12-18T17:14:32;-4.90;99.90
29211;DHT22;16250;49.932;10.980;2022-12-18T17:16:59;-4.80;99.90
29211;DHT22;16250;49.932;10.980;2022-12-18T17:19:26;-4.80;99.90
29211;DHT22;16250;49.932;10.980;2022-12-18T17:21:52;-4.70;99.90
29211;DHT22;16250;49.932;10.980;2022-12-18T17:24:18;-4.80;99.90